createdAt,value
2018-11-13T00:00:25.841Z,92.30
2018-11-13T00:02:55.774Z,92.83
2018-11-13T00:05:25.482Z,92.77
2018-11-13T00:07:54.665Z,93.22
2018-11-13T00:10:23.958Z,93.58
2018-11-13T00:12:53.175Z,93.39
2018-11-13T00:15:22.697Z,92.44
2018-11-13T00:17:51.907Z,92.91
2018-11-13T00:20:21.170Z,92.69
2018-11-13T00:22:50.685Z,93.36
2018-11-13T00:25:20.503Z,93.61
2018-11-13T00:27:49.690Z,93.66
2018-11-13T00:30:20.730Z,94.28
2018-11-13T00:32:50.335Z,94.53
2018-11-13T00:35:20.419Z,94.53
2018-11-13T00:37:50.035Z,94.64
2018-11-13T00:40:19.406Z,95.01
2018-11-13T00:42:49.120Z,94.87
2018-11-13T00:45:18.716Z,94.85
2018-11-13T00:47:47.723Z,94.05
2018-11-13T00:50:20.197Z,93.35
2018-11-13T00:52:49.606Z,92.63
2018-11-13T00:55:19.141Z,92.06
2018-11-13T00:57:49.036Z,92.22
2018-11-13T01:00:19.756Z,91.58
2018-11-13T01:02:49.301Z,91.80
2018-11-13T01:05:19.894Z,91.61
2018-11-13T01:07:50.186Z,91.71
2018-11-13T01:10:20.087Z,91.46
2018-11-13T01:12:49.660Z,91.72
2018-11-13T01:15:20.266Z,91.77
2018-11-13T01:17:49.786Z,91.85
2018-11-13T01:20:19.609Z,92.13
2018-11-13T01:22:49.050Z,92.71
2018-11-13T01:25:18.430Z,93.18
2018-11-13T01:27:47.777Z,92.78
2018-11-13T01:30:17.627Z,93.16
2018-11-13T01:32:47.065Z,93.11
2018-11-13T01:35:17.433Z,93.64
2018-11-13T01:37:47.016Z,93.39
2018-11-13T01:40:17.966Z,94.08
2018-11-13T01:42:47.187Z,94.17
2018-11-13T01:45:17.335Z,93.91
2018-11-13T01:47:46.553Z,93.63
2018-11-13T01:50:16.069Z,93.14
2018-11-13T01:52:45.658Z,92.87
2018-11-13T01:55:15.785Z,92.40
2018-11-13T01:57:45.046Z,91.70
2018-11-13T02:00:23.836Z,91.80
2018-11-13T02:02:54.346Z,91.86
2018-11-13T02:05:25.011Z,91.68
2018-11-13T02:07:54.765Z,92.30
2018-11-13T02:10:23.986Z,92.28
2018-11-13T02:12:53.473Z,92.05
2018-11-13T02:15:22.981Z,92.44
2018-11-13T02:17:52.315Z,93.10
2018-11-13T02:20:22.610Z,93.04
2018-11-13T02:22:51.971Z,93.28
2018-11-13T02:25:21.690Z,93.35
2018-11-13T02:27:50.973Z,92.88
2018-11-13T02:30:23.300Z,92.88
2018-11-13T02:32:52.655Z,92.70
2018-11-13T02:35:21.992Z,93.05
2018-11-13T02:37:51.333Z,93.44
2018-11-13T02:40:20.729Z,92.71
2018-11-13T02:42:50.037Z,92.65
2018-11-13T02:45:20.135Z,92.41
2018-11-13T02:47:49.845Z,92.95
2018-11-13T02:50:20.212Z,93.53
2018-11-13T02:52:49.388Z,93.36
2018-11-13T02:55:19.020Z,93.29
2018-11-13T02:57:48.111Z,93.40
2018-11-13T03:00:21.597Z,93.28
2018-11-13T03:02:51.274Z,93.39
2018-11-13T03:05:21.452Z,94.37
2018-11-13T03:07:50.672Z,94.28
2018-11-13T03:10:20.525Z,93.98
2018-11-13T03:12:50.062Z,93.58
2018-11-13T03:15:20.406Z,93.56
2018-11-13T03:17:49.778Z,93.37
2018-11-13T03:20:20.006Z,93.26
2018-11-13T03:22:49.803Z,93.22
2018-11-13T03:25:20.362Z,93.12
2018-11-13T03:27:49.602Z,94.12
2018-11-13T03:30:26.344Z,94.90
2018-11-13T03:32:55.843Z,95.27
2018-11-13T03:35:25.170Z,96.05
2018-11-13T03:37:54.437Z,96.01
2018-11-13T03:40:23.528Z,96.09
2018-11-13T03:42:53.141Z,96.22
2018-11-13T03:45:22.455Z,96.68
2018-11-13T03:47:51.714Z,96.81
2018-11-13T03:50:22.052Z,96.45
2018-11-13T03:52:51.378Z,96.59
2018-11-13T03:55:21.170Z,96.77
2018-11-13T03:57:50.990Z,97.03
2018-11-13T04:00:22.713Z,97.53
2018-11-13T04:02:51.953Z,98.36
2018-11-13T04:05:21.855Z,98.41
2018-11-13T04:07:54.022Z,98.28
2018-11-13T04:10:23.891Z,98.37
2018-11-13T04:12:53.297Z,98.38
2018-11-13T04:15:23.607Z,98.02
2018-11-13T04:17:52.983Z,97.77
2018-11-13T04:20:23.025Z,97.68
2018-11-13T04:22:52.356Z,97.75
2018-11-13T04:25:21.815Z,97.52
2018-11-13T04:27:51.224Z,97.93
2018-11-13T04:30:20.635Z,97.72
2018-11-13T04:32:49.933Z,98.35
2018-11-13T04:35:19.514Z,98.69
2018-11-13T04:37:48.627Z,99.23
2018-11-13T04:40:20.953Z,98.76
2018-11-13T04:42:52.436Z,98.96
2018-11-13T04:45:23.694Z,98.99
2018-11-13T04:47:53.397Z,98.67
2018-11-13T04:50:23.358Z,98.80
2018-11-13T04:52:52.407Z,98.94
2018-11-13T04:55:21.602Z,98.88
2018-11-13T04:57:51.218Z,98.94
2018-11-13T05:00:21.958Z,98.68
2018-11-13T05:02:51.340Z,98.07
2018-11-13T05:05:21.542Z,97.53
2018-11-13T05:07:51.992Z,97.58
2018-11-13T05:10:21.096Z,97.66
2018-11-13T05:12:50.744Z,97.72
2018-11-13T05:15:20.139Z,97.77
2018-11-13T05:17:49.374Z,98.11
2018-11-13T05:20:18.897Z,97.89
2018-11-13T05:22:47.927Z,97.85
2018-11-13T05:25:18.855Z,97.75
2018-11-13T05:27:48.079Z,97.88
2018-11-13T05:30:20.865Z,97.90
2018-11-13T05:32:50.141Z,97.36
2018-11-13T05:35:20.421Z,97.23
2018-11-13T05:37:49.794Z,97.42
2018-11-13T05:40:23.057Z,97.50
2018-11-13T05:42:52.504Z,95.55
2018-11-13T05:45:23.943Z,91.80
2018-11-13T05:47:53.552Z,87.65
2018-11-13T05:50:22.822Z,85.79
2018-11-13T05:52:53.463Z,83.02
2018-11-13T05:55:22.791Z,79.98
2018-11-13T05:57:52.186Z,79.42
2018-11-13T06:00:26.266Z,77.52
2018-11-13T06:02:55.630Z,76.44
2018-11-13T06:05:24.842Z,74.95
2018-11-13T06:07:54.182Z,74.63
2018-11-13T06:10:23.394Z,72.99
2018-11-13T06:12:52.887Z,71.79
2018-11-13T06:15:22.115Z,70.51
2018-11-13T06:17:51.528Z,68.57
2018-11-13T06:20:20.741Z,67.62
2018-11-13T06:22:50.321Z,67.06
2018-11-13T06:25:19.642Z,65.87
2018-11-13T06:27:49.695Z,65.32
2018-11-13T06:30:21.429Z,65.14
2018-11-13T06:32:50.886Z,64.43
2018-11-13T06:35:20.292Z,64.02
2018-11-13T06:37:49.490Z,62.85
2018-11-13T06:40:18.715Z,62.99
2018-11-13T06:42:48.116Z,63.75
2018-11-13T06:45:18.886Z,62.41
2018-11-13T06:47:48.593Z,61.48
2018-11-13T06:50:17.973Z,61.77
2018-11-13T06:52:48.043Z,62.30
2018-11-13T06:55:23.679Z,62.20
2018-11-13T06:57:52.950Z,61.49
2018-11-13T07:00:22.445Z,60.67
2018-11-13T07:02:51.848Z,60.81
2018-11-13T07:05:21.047Z,60.34
2018-11-13T07:07:50.416Z,59.75
2018-11-13T07:10:20.831Z,59.62
2018-11-13T07:12:50.843Z,60.08
2018-11-13T07:15:21.408Z,59.27
2018-11-13T07:17:52.064Z,58.67
2018-11-13T07:20:22.496Z,58.67
2018-11-13T07:22:51.862Z,58.80
2018-11-13T07:25:21.305Z,58.66
2018-11-13T07:27:50.614Z,58.62
2018-11-13T07:30:20.958Z,58.73
2018-11-13T07:32:50.134Z,59.10
2018-11-13T07:35:20.191Z,58.68
2018-11-13T07:37:53.853Z,59.54
2018-11-13T07:40:23.259Z,59.62
2018-11-13T07:42:52.960Z,60.65
2018-11-13T07:45:22.144Z,61.47
2018-11-13T07:47:51.891Z,62.56
2018-11-13T07:50:21.071Z,64.21
2018-11-13T07:52:50.381Z,63.71
2018-11-13T07:55:20.003Z,64.00
2018-11-13T07:57:49.363Z,63.19
2018-11-13T08:00:23.886Z,63.78
2018-11-13T08:02:54.242Z,63.93
2018-11-13T08:05:23.568Z,64.64
2018-11-13T08:07:52.793Z,65.23
2018-11-13T08:10:21.952Z,66.23
2018-11-13T08:12:51.508Z,65.49
2018-11-13T08:15:20.687Z,65.71
2018-11-13T08:17:49.960Z,65.70
2018-11-13T08:20:19.306Z,67.41
2018-11-13T08:22:55.153Z,68.88
2018-11-13T08:25:24.793Z,67.27
2018-11-13T08:27:53.951Z,65.18
2018-11-13T08:30:23.192Z,65.73
2018-11-13T08:32:52.349Z,64.28
2018-11-13T08:35:21.589Z,66.74
2018-11-13T08:37:51.062Z,68.77
2018-11-13T08:40:20.386Z,69.33
2018-11-13T08:42:49.518Z,72.07
2018-11-13T08:45:18.695Z,72.93
2018-11-13T08:47:48.073Z,72.70
2018-11-13T08:50:17.785Z,71.05
2018-11-13T08:52:47.586Z,71.79
2018-11-13T08:55:17.047Z,72.11
2018-11-13T08:57:46.316Z,74.06
2018-11-13T09:00:17.002Z,73.01
2018-11-13T09:02:46.768Z,73.71
2018-11-13T09:05:16.430Z,73.41
2018-11-13T09:07:45.932Z,73.39
2018-11-13T09:10:16.650Z,72.04
2018-11-13T09:12:46.105Z,71.77
2018-11-13T09:15:16.815Z,72.07
2018-11-13T09:17:46.106Z,72.81
2018-11-13T09:20:16.542Z,71.65
2018-11-13T09:22:45.853Z,72.31
2018-11-13T09:25:17.215Z,72.36
2018-11-13T09:27:46.741Z,71.85
2018-11-13T09:30:17.393Z,72.51
2018-11-13T09:32:46.964Z,72.15
2018-11-13T09:35:16.979Z,72.18
2018-11-13T09:37:46.056Z,73.30
2018-11-13T09:40:17.760Z,73.86
2018-11-13T09:42:47.942Z,73.27
2018-11-13T09:45:17.655Z,73.07
2018-11-13T09:47:47.023Z,73.33
2018-11-13T09:50:17.506Z,73.92
2018-11-13T09:52:48.214Z,72.35
2018-11-13T09:55:18.499Z,72.14
2018-11-13T09:57:48.068Z,71.77
2018-11-13T10:00:19.404Z,72.06
2018-11-13T10:02:51.111Z,72.18
2018-11-13T10:05:21.153Z,71.56
2018-11-13T10:07:50.913Z,72.00
2018-11-13T10:10:20.298Z,71.73
2018-11-13T10:12:49.677Z,71.62
2018-11-13T10:15:21.355Z,70.94
2018-11-13T10:17:51.291Z,70.24
2018-11-13T10:20:20.523Z,70.04
2018-11-13T10:22:51.269Z,69.99
2018-11-13T10:25:20.475Z,69.19
2018-11-13T10:27:49.738Z,69.42
2018-11-13T10:30:20.475Z,69.65
2018-11-13T10:32:50.164Z,69.03
2018-11-13T10:35:20.773Z,68.20
2018-11-13T10:37:50.070Z,68.41
2018-11-13T10:40:20.506Z,67.49
2018-11-13T10:42:50.174Z,67.47
2018-11-13T10:45:28.142Z,67.67
2018-11-13T10:47:57.629Z,67.19
2018-11-13T10:50:27.468Z,67.79
2018-11-13T10:52:56.910Z,67.22
2018-11-13T10:55:26.110Z,66.77
2018-11-13T10:57:55.237Z,66.44
2018-11-13T11:00:28.546Z,66.80
2018-11-13T11:03:02.993Z,67.02
2018-11-13T11:05:32.518Z,66.87
2018-11-13T11:08:01.626Z,66.52
2018-11-13T11:10:30.749Z,66.19
2018-11-13T11:13:00.190Z,66.08
2018-11-13T11:15:29.562Z,65.41
2018-11-13T11:17:59.005Z,64.87
2018-11-13T11:20:28.519Z,64.81
2018-11-13T11:22:58.614Z,65.81
2018-11-13T11:25:27.954Z,64.98
2018-11-13T11:27:57.220Z,64.49
2018-11-13T11:30:26.694Z,65.41
2018-11-13T11:32:56.019Z,65.30
2018-11-13T11:35:25.278Z,64.12
2018-11-13T11:37:54.594Z,63.98
2018-11-13T11:40:23.819Z,63.44
2018-11-13T11:42:53.661Z,63.35
2018-11-13T11:45:22.944Z,63.30
2018-11-13T11:47:52.119Z,62.85
2018-11-13T11:50:21.481Z,63.31
2018-11-13T11:52:50.844Z,63.87
2018-11-13T11:55:20.584Z,63.62
2018-11-13T11:57:49.707Z,63.79
2018-11-13T12:00:20.595Z,62.61
2018-11-13T12:02:49.988Z,62.93
2018-11-13T12:05:19.259Z,62.87
2018-11-13T12:07:48.850Z,61.95
2018-11-13T12:10:18.195Z,62.41
2018-11-13T12:12:47.461Z,62.55
2018-11-13T12:15:16.685Z,61.58
2018-11-13T12:17:46.235Z,61.80
2018-11-13T12:20:16.553Z,62.46
2018-11-13T12:22:46.001Z,62.83
2018-11-13T12:25:20.162Z,62.94
2018-11-13T12:27:47.957Z,62.72
2018-11-13T12:30:20.094Z,62.63
2018-11-13T12:32:50.019Z,62.47
2018-11-13T12:35:20.198Z,62.67
2018-11-13T12:37:49.583Z,62.11
2018-11-13T12:40:20.990Z,62.10
2018-11-13T12:42:50.921Z,62.25
2018-11-13T12:45:20.699Z,62.30
2018-11-13T12:47:50.066Z,62.35
2018-11-13T12:50:20.265Z,61.63
2018-11-13T12:52:49.698Z,61.57
2018-11-13T12:55:21.269Z,61.72
2018-11-13T12:57:50.661Z,62.17
2018-11-13T13:00:22.161Z,61.66
2018-11-13T13:02:51.395Z,62.04
2018-11-13T13:05:20.910Z,61.76
2018-11-13T13:07:50.282Z,61.93
2018-11-13T13:10:20.414Z,61.91
2018-11-13T13:12:49.785Z,61.56
2018-11-13T13:15:20.041Z,61.44
2018-11-13T13:17:49.277Z,61.83
2018-11-13T13:20:21.012Z,61.68
2018-11-13T13:22:50.690Z,61.39
2018-11-13T13:25:20.924Z,61.23
2018-11-13T13:27:50.308Z,61.29
2018-11-13T13:30:20.755Z,61.49
2018-11-13T13:32:50.338Z,61.37
2018-11-13T13:36:06.260Z,61.02
2018-11-13T13:38:36.840Z,61.05
2018-11-13T13:41:06.471Z,61.23
2018-11-13T13:43:36.074Z,61.03
2018-11-13T13:46:05.480Z,60.82
2018-11-13T13:48:34.838Z,60.29
2018-11-13T13:51:04.162Z,60.86
2018-11-13T13:53:33.445Z,61.36
2018-11-13T13:56:02.955Z,61.08
2018-11-13T13:58:32.258Z,60.91
2018-11-13T14:01:01.642Z,60.43
2018-11-13T14:03:30.793Z,59.88
2018-11-13T14:06:00.280Z,59.71
2018-11-13T14:08:29.761Z,60.22
2018-11-13T14:10:59.082Z,60.35
2018-11-13T14:13:28.412Z,60.78
2018-11-13T14:15:57.702Z,60.96
2018-11-13T14:18:26.882Z,61.26
2018-11-13T14:20:56.712Z,61.30
2018-11-13T14:23:25.877Z,61.49
2018-11-13T14:25:55.123Z,62.24
2018-11-13T14:28:24.450Z,62.23
2018-11-13T14:30:53.742Z,62.47
2018-11-13T14:33:23.346Z,62.76
2018-11-13T14:35:52.828Z,62.84
2018-11-13T14:38:22.130Z,62.93
2018-11-13T14:40:51.310Z,63.34
2018-11-13T14:43:20.510Z,63.05
2018-11-13T14:45:49.913Z,63.79
2018-11-13T14:48:19.095Z,63.58
2018-11-13T14:50:48.348Z,64.11
2018-11-13T14:53:17.642Z,64.34
2018-11-13T14:55:47.086Z,64.51
2018-11-13T14:58:17.504Z,64.74
2018-11-13T15:00:46.765Z,65.07
2018-11-13T15:03:17.015Z,65.23
2018-11-13T15:05:46.422Z,65.38
2018-11-13T15:08:15.813Z,65.84
2018-11-13T15:10:52.814Z,65.23
2018-11-13T15:13:23.298Z,65.64
2018-11-13T15:15:52.424Z,66.29
2018-11-13T15:18:21.517Z,65.61
2018-11-13T15:20:51.811Z,66.39
2018-11-13T15:23:21.303Z,66.92
2018-11-13T15:25:50.434Z,67.08
2018-11-13T15:28:19.758Z,67.32
2018-11-13T15:30:50.355Z,67.42
2018-11-13T15:33:21.737Z,68.13
2018-11-13T15:35:51.403Z,68.30
2018-11-13T15:38:20.606Z,68.55
2018-11-13T15:40:49.838Z,68.79
2018-11-13T15:43:19.158Z,69.03
2018-11-13T15:45:48.218Z,68.95
2018-11-13T15:48:17.515Z,68.44
2018-11-13T15:50:46.847Z,68.50
2018-11-13T15:53:16.275Z,68.80
2018-11-13T15:55:45.557Z,68.89
2018-11-13T15:58:14.886Z,69.24
2018-11-13T16:00:44.289Z,69.60
2018-11-13T16:03:19.966Z,69.65
2018-11-13T16:05:50.423Z,69.90
2018-11-13T16:08:19.842Z,69.61
2018-11-13T16:10:49.309Z,69.66
2018-11-13T16:13:18.515Z,70.06
2018-11-13T16:15:47.758Z,69.98
2018-11-13T16:18:19.578Z,70.01
2018-11-13T16:20:48.748Z,70.17
2018-11-13T16:23:18.006Z,69.92
2018-11-13T16:25:47.287Z,70.55
2018-11-13T16:28:16.553Z,69.82
2018-11-13T16:30:45.955Z,70.15
2018-11-13T16:33:15.105Z,70.30
2018-11-13T16:35:44.530Z,70.35
2018-11-13T16:38:14.063Z,70.52
2018-11-13T16:40:43.201Z,70.66
2018-11-13T16:43:12.362Z,70.75
2018-11-13T16:45:41.643Z,70.92
2018-11-13T16:48:11.008Z,71.18
2018-11-13T16:50:41.534Z,71.54
2018-11-13T16:53:10.867Z,71.52
2018-11-13T16:55:47.736Z,71.66
2018-11-13T16:58:17.263Z,72.11
2018-11-13T17:00:46.859Z,72.28
2018-11-13T17:03:16.061Z,72.19
2018-11-13T17:05:45.273Z,72.76
2018-11-13T17:08:14.535Z,72.70
2018-11-13T17:10:44.409Z,73.27
2018-11-13T17:13:13.757Z,73.65
2018-11-13T17:15:43.221Z,74.12
2018-11-13T17:18:13.726Z,75.03
2018-11-13T17:20:41.678Z,75.22
2018-11-13T17:23:10.989Z,75.63
2018-11-13T17:25:40.510Z,76.27
2018-11-13T17:28:09.887Z,76.33
2018-11-13T17:30:39.286Z,76.96
2018-11-13T17:33:09.768Z,77.55
2018-11-13T17:35:38.983Z,77.94
2018-11-13T17:38:08.178Z,78.32
2018-11-13T17:40:38.027Z,78.46
2018-11-13T17:43:07.932Z,79.09
2018-11-13T17:45:38.550Z,79.96
2018-11-13T17:48:08.960Z,79.58
2018-11-13T17:50:42.729Z,79.91
2018-11-13T17:53:12.503Z,80.70
2018-11-13T17:55:42.131Z,80.92
2018-11-13T17:58:13.386Z,81.02
2018-11-13T18:00:46.062Z,81.56
2018-11-13T18:03:16.428Z,81.57
2018-11-13T18:05:46.663Z,81.93
2018-11-13T18:08:15.736Z,82.45
2018-11-13T18:10:46.184Z,82.78
2018-11-13T18:13:15.453Z,83.04
2018-11-13T18:15:45.049Z,83.26
2018-11-13T18:18:14.565Z,83.41
2018-11-13T18:20:43.945Z,83.94
2018-11-13T18:23:13.098Z,84.51
2018-11-13T18:25:42.612Z,84.60
2018-11-13T18:28:12.421Z,85.06
2018-11-13T18:30:41.658Z,85.42
2018-11-13T18:33:11.073Z,85.84
2018-11-13T18:35:40.913Z,85.97
2018-11-13T18:38:11.942Z,86.36
2018-11-13T18:40:41.487Z,86.67
2018-11-13T18:43:10.953Z,86.88
2018-11-13T18:45:41.446Z,87.51
2018-11-13T18:48:11.136Z,87.83
2018-11-13T18:50:42.883Z,88.11
2018-11-13T18:53:12.387Z,88.58
2018-11-13T18:55:41.944Z,89.22
2018-11-13T18:58:11.560Z,89.48
2018-11-13T19:00:41.515Z,89.80
2018-11-13T19:03:11.928Z,90.53
2018-11-13T19:05:41.579Z,90.68
2018-11-13T19:08:11.329Z,91.20
2018-11-13T19:10:42.309Z,91.21
2018-11-13T19:13:13.258Z,91.33
2018-11-13T19:15:43.960Z,91.54
2018-11-13T19:18:13.680Z,92.11
2018-11-13T19:20:42.979Z,92.20
2018-11-13T19:23:12.624Z,92.42
2018-11-13T19:25:42.305Z,92.68
2018-11-13T19:28:11.948Z,93.15
2018-11-13T19:30:41.258Z,93.47
2018-11-13T19:33:10.641Z,93.39
2018-11-13T19:35:40.347Z,93.57
2018-11-13T19:38:09.626Z,93.40
2018-11-13T19:40:38.920Z,93.33
2018-11-13T19:43:09.568Z,93.74
2018-11-13T19:45:38.764Z,93.53
2018-11-13T19:48:08.152Z,93.63
2018-11-13T19:50:37.957Z,93.68
2018-11-13T19:53:07.301Z,93.55
2018-11-13T19:55:37.347Z,93.32
2018-11-13T19:58:07.324Z,93.91
2018-11-13T20:00:38.493Z,93.91
2018-11-13T20:03:09.176Z,93.68
2018-11-13T20:05:38.357Z,93.57
2018-11-13T20:08:08.170Z,93.88
2018-11-13T20:10:38.050Z,93.45
2018-11-13T20:13:08.175Z,93.32
2018-11-13T20:15:37.883Z,93.75
2018-11-13T20:18:07.483Z,94.34
2018-11-13T20:20:37.021Z,94.06
2018-11-13T20:23:07.646Z,94.48
2018-11-13T20:25:37.191Z,93.79
2018-11-13T20:28:06.471Z,92.37
2018-11-13T20:30:36.923Z,90.89
2018-11-13T20:33:06.077Z,89.76
2018-11-13T20:35:35.431Z,88.81
2018-11-13T20:38:06.731Z,88.85
2018-11-13T20:40:37.050Z,88.50
2018-11-13T20:43:07.941Z,87.96
2018-11-13T20:45:37.273Z,87.98
2018-11-13T20:48:07.184Z,87.89
2018-11-13T20:50:36.422Z,88.10
2018-11-13T20:53:05.674Z,88.55
2018-11-13T20:55:34.930Z,88.67
2018-11-13T20:58:04.670Z,90.08
2018-11-13T21:00:34.967Z,91.04
2018-11-13T21:03:04.170Z,90.54
2018-11-13T21:05:33.400Z,90.71
2018-11-13T21:08:02.772Z,90.70
2018-11-13T21:10:39.163Z,90.22
2018-11-13T21:13:09.506Z,89.81
2018-11-13T21:15:39.078Z,89.61
2018-11-13T21:18:08.378Z,89.18
2018-11-13T21:20:37.776Z,88.18
2018-11-13T21:23:07.134Z,88.24
2018-11-13T21:25:36.789Z,88.02
2018-11-13T21:28:05.936Z,88.45
2018-11-13T21:30:35.264Z,88.80
2018-11-13T21:33:04.507Z,88.63
2018-11-13T21:35:33.710Z,88.74
2018-11-13T21:38:02.973Z,89.11
2018-11-13T21:40:32.410Z,89.55
2018-11-13T21:43:01.530Z,88.57
2018-11-13T21:45:30.351Z,88.66
2018-11-13T21:48:00.628Z,88.57
2018-11-13T21:50:30.458Z,90.34
2018-11-13T21:53:00.074Z,90.88
2018-11-13T21:55:29.943Z,90.49
2018-11-13T21:57:59.105Z,89.98
2018-11-13T22:00:31.818Z,93.50
2018-11-13T22:03:04.128Z,94.50
2018-11-13T22:05:34.098Z,93.09
2018-11-13T22:08:03.354Z,93.53
2018-11-13T22:10:32.593Z,94.47
2018-11-13T22:13:01.617Z,94.31
2018-11-13T22:15:31.250Z,94.67
2018-11-13T22:18:01.192Z,95.52
2018-11-13T22:20:30.438Z,95.84
2018-11-13T22:23:00.450Z,96.18
2018-11-13T22:25:29.782Z,96.57
2018-11-13T22:27:59.475Z,96.53
2018-11-13T22:30:29.896Z,97.11
2018-11-13T22:32:59.003Z,97.04
2018-11-13T22:35:28.315Z,96.97
2018-11-13T22:37:57.992Z,96.73
2018-11-13T22:40:28.273Z,97.18
2018-11-13T22:42:58.030Z,97.34
2018-11-13T22:45:28.327Z,97.83
2018-11-13T22:47:57.843Z,98.15
2018-11-13T22:50:29.243Z,98.13
2018-11-13T22:52:58.561Z,97.43
2018-11-13T22:55:27.817Z,97.49
2018-11-13T22:57:57.789Z,97.58
2018-11-13T23:00:40.476Z,97.39
2018-11-13T23:03:11.883Z,97.36
2018-11-13T23:05:41.198Z,97.38
2018-11-13T23:08:11.729Z,97.56
2018-11-13T23:10:41.069Z,98.21
2018-11-13T23:13:10.363Z,98.89
2018-11-13T23:15:39.756Z,99.20
2018-11-13T23:18:09.399Z,99.17
2018-11-13T23:20:38.771Z,98.93
2018-11-13T23:23:07.946Z,99.18
2018-11-13T23:25:37.167Z,99.08
2018-11-13T23:28:06.832Z,99.14
2018-11-13T23:30:36.210Z,99.17
2018-11-13T23:33:06.044Z,99.57
2018-11-13T23:35:34.979Z,100.00
2018-11-13T23:38:04.235Z,100.00
2018-11-13T23:40:33.363Z,100.00
2018-11-13T23:43:02.582Z,100.00
2018-11-13T23:45:31.670Z,100.00
2018-11-13T23:48:01.123Z,100.00
2018-11-13T23:50:30.194Z,100.00
2018-11-13T23:52:59.605Z,100.00
2018-11-13T23:55:28.977Z,100.00
2018-11-13T23:57:58.209Z,100.00
